GTESG EGNE-EGNJ
Flight info
| Callsign | GTESG |
|---|---|
| Flight time | 0h 44m |
| Altitude | 5000 |
| Route | DOPEK DCT SIVBU |
| Aircraft | DA42/L-SBDGRY/S |
Departure
| Time | 2026-05-06 13:14 |
|---|---|
| Airport | Retford Gamston Airport (EGNE) |
Arrival
| Time | 2026-05-06 13:58 |
|---|---|
| Airport | Humberside Airport (EGNJ) |
| Time | Latitude | Longitude | Altitude | Speed | Heading |
|---|---|---|---|---|---|
| 2026-05-06 12:57 | 53.28015 | -0.94984 | 89 ft | 0 kts | 115° |
| 2026-05-06 13:09 | 53.28012 | -0.94971 | 93 ft | 1 kts | 101° |
| 2026-05-06 13:09 | 53.28010 | -0.94965 | 93 ft | 5 kts | 135° |
| 2026-05-06 13:09 | 53.27954 | -0.95004 | 89 ft | 10 kts | 216° |
| 2026-05-06 13:09 | 53.27930 | -0.95049 | 90 ft | 5 kts | 255° |
| 2026-05-06 13:10 | 53.27928 | -0.95128 | 92 ft | 7 kts | 284° |
| 2026-05-06 13:10 | 53.27943 | -0.95195 | 95 ft | 5 kts | 285° |
| 2026-05-06 13:10 | 53.27984 | -0.95178 | 94 ft | 8 kts | 24° |
| 2026-05-06 13:10 | 53.28042 | -0.95131 | 92 ft | 10 kts | 26° |
| 2026-05-06 13:11 | 53.28117 | -0.95073 | 91 ft | 15 kts | 24° |
| 2026-05-06 13:11 | 53.28196 | -0.95012 | 90 ft | 10 kts | 20° |
| 2026-05-06 13:11 | 53.28281 | -0.94946 | 91 ft | 18 kts | 26° |
| 2026-05-06 13:11 | 53.28405 | -0.94850 | 94 ft | 21 kts | 25° |
| 2026-05-06 13:12 | 53.28497 | -0.94780 | 93 ft | 4 kts | 348° |
| 2026-05-06 13:12 | 53.28513 | -0.94782 | 93 ft | 3 kts | 27° |
| 2026-05-06 13:12 | 53.28503 | -0.94774 | 94 ft | 4 kts | 207° |
| 2026-05-06 13:12 | 53.28498 | -0.94778 | 93 ft | 0 kts | 205° |
| 2026-05-06 13:13 | 53.28496 | -0.94780 | 93 ft | 6 kts | 205° |
| 2026-05-06 13:13 | 53.28227 | -0.94988 | 92 ft | 79 kts | 205° |
| 2026-05-06 13:13 | 53.27600 | -0.95468 | 195 ft | 111 kts | 204° |
| 2026-05-06 13:13 | 53.26858 | -0.95996 | 498 ft | 121 kts | 199° |
| 2026-05-06 13:14 | 53.26077 | -0.96436 | 914 ft | 116 kts | 198° |
| 2026-05-06 13:14 | 53.25321 | -0.96925 | 1220 ft | 119 kts | 199° |
| 2026-05-06 13:14 | 53.24550 | -0.97479 | 1510 ft | 122 kts | 208° |
| 2026-05-06 13:14 | 53.23989 | -0.98474 | 1830 ft | 115 kts | 256° |
| 2026-05-06 13:15 | 53.23941 | -0.99695 | 2165 ft | 97 kts | 302° |
| 2026-05-06 13:15 | 53.24279 | -1.00536 | 2556 ft | 84 kts | 330° |
| 2026-05-06 13:15 | 53.24761 | -1.01012 | 2871 ft | 79 kts | 351° |
| 2026-05-06 13:15 | 53.25307 | -1.01107 | 3188 ft | 79 kts | 12° |
| 2026-05-06 13:16 | 53.25820 | -1.00833 | 3543 ft | 77 kts | 26° |
| 2026-05-06 13:16 | 53.26312 | -1.00469 | 3895 ft | 80 kts | 26° |
| 2026-05-06 13:16 | 53.26824 | -1.00107 | 4249 ft | 80 kts | 26° |
| 2026-05-06 13:16 | 53.27348 | -0.99749 | 4584 ft | 81 kts | 26° |
| 2026-05-06 13:17 | 53.27894 | -0.99383 | 4905 ft | 87 kts | 26° |
| 2026-05-06 13:17 | 53.28463 | -0.99006 | 5230 ft | 90 kts | 25° |
| 2026-05-06 13:17 | 53.29054 | -0.98620 | 5546 ft | 91 kts | 26° |
| 2026-05-06 13:17 | 53.29637 | -0.98241 | 5905 ft | 90 kts | 25° |
| 2026-05-06 13:18 | 53.30296 | -0.97807 | 5975 ft | 115 kts | 26° |
| 2026-05-06 13:18 | 53.31090 | -0.97286 | 5974 ft | 129 kts | 24° |
| 2026-05-06 13:18 | 53.31958 | -0.96726 | 5971 ft | 138 kts | 24° |
| 2026-05-06 13:18 | 53.32878 | -0.96136 | 5974 ft | 145 kts | 23° |
| 2026-05-06 13:19 | 53.33831 | -0.95524 | 5970 ft | 149 kts | 24° |
| 2026-05-06 13:19 | 53.34801 | -0.94901 | 5964 ft | 149 kts | 25° |
| 2026-05-06 13:19 | 53.35758 | -0.94283 | 5957 ft | 146 kts | 24° |
| 2026-05-06 13:19 | 53.36702 | -0.93672 | 5964 ft | 145 kts | 23° |
| 2026-05-06 13:20 | 53.37639 | -0.93049 | 5958 ft | 144 kts | 29° |
| 2026-05-06 13:20 | 53.38420 | -0.92048 | 5967 ft | 141 kts | 51° |
| 2026-05-06 13:20 | 53.38895 | -0.90622 | 5972 ft | 141 kts | 68° |
| 2026-05-06 13:20 | 53.39258 | -0.89092 | 5971 ft | 142 kts | 69° |
| 2026-05-06 13:21 | 53.39619 | -0.87553 | 5972 ft | 143 kts | 69° |
| 2026-05-06 13:21 | 53.39981 | -0.86005 | 5971 ft | 142 kts | 68° |
| 2026-05-06 13:21 | 53.40342 | -0.84462 | 5974 ft | 142 kts | 69° |
| 2026-05-06 13:21 | 53.40703 | -0.82922 | 5975 ft | 143 kts | 69° |
| 2026-05-06 13:22 | 53.41066 | -0.81366 | 5980 ft | 144 kts | 69° |
| 2026-05-06 13:22 | 53.41434 | -0.79792 | 5973 ft | 146 kts | 69° |
| 2026-05-06 13:22 | 53.41799 | -0.78228 | 5969 ft | 141 kts | 69° |
| 2026-05-06 13:22 | 53.42152 | -0.76715 | 5867 ft | 139 kts | 69° |
| 2026-05-06 13:23 | 53.42502 | -0.75216 | 5708 ft | 138 kts | 68° |
| 2026-05-06 13:23 | 53.42847 | -0.73734 | 5553 ft | 139 kts | 68° |
| 2026-05-06 13:23 | 53.43201 | -0.72218 | 5396 ft | 140 kts | 68° |
| 2026-05-06 13:23 | 53.43553 | -0.70702 | 5241 ft | 139 kts | 68° |
| 2026-05-06 13:24 | 53.43905 | -0.69195 | 5098 ft | 138 kts | 67° |
| 2026-05-06 13:24 | 53.44256 | -0.67689 | 4904 ft | 139 kts | 68° |
| 2026-05-06 13:24 | 53.44608 | -0.66172 | 4669 ft | 141 kts | 68° |
| 2026-05-06 13:24 | 53.44962 | -0.64647 | 4430 ft | 139 kts | 66° |
| 2026-05-06 13:25 | 53.45311 | -0.63142 | 4191 ft | 137 kts | 65° |
| 2026-05-06 13:25 | 53.45541 | -0.62151 | 4034 ft | 134 kts | 65° |
| 2026-05-06 13:25 | 53.45873 | -0.60715 | 3808 ft | 133 kts | 64° |
| 2026-05-06 13:25 | 53.46213 | -0.59250 | 3572 ft | 132 kts | 65° |
| 2026-05-06 13:26 | 53.46573 | -0.57861 | 3339 ft | 130 kts | 55° |
| 2026-05-06 13:26 | 53.47118 | -0.56671 | 3099 ft | 128 kts | 48° |
| 2026-05-06 13:26 | 53.47676 | -0.55521 | 2873 ft | 126 kts | 48° |
| 2026-05-06 13:26 | 53.48228 | -0.54384 | 2633 ft | 125 kts | 48° |
| 2026-05-06 13:27 | 53.48778 | -0.53249 | 2396 ft | 126 kts | 48° |
| 2026-05-06 13:27 | 53.49331 | -0.52109 | 2160 ft | 126 kts | 48° |
| 2026-05-06 13:27 | 53.49879 | -0.50976 | 1992 ft | 123 kts | 48° |
| 2026-05-06 13:27 | 53.50420 | -0.49863 | 1997 ft | 124 kts | 48° |
| 2026-05-06 13:28 | 53.50970 | -0.48727 | 1999 ft | 126 kts | 48° |
| 2026-05-06 13:28 | 53.51533 | -0.47591 | 1999 ft | 127 kts | 44° |
| 2026-05-06 13:28 | 53.52170 | -0.46574 | 1999 ft | 126 kts | 41° |
| 2026-05-06 13:28 | 53.52814 | -0.45584 | 1997 ft | 125 kts | 40° |
| 2026-05-06 13:29 | 53.53456 | -0.44603 | 2000 ft | 126 kts | 41° |
| 2026-05-06 13:29 | 53.54114 | -0.43623 | 2000 ft | 127 kts | 40° |
| 2026-05-06 13:29 | 53.54778 | -0.42645 | 1996 ft | 126 kts | 40° |
| 2026-05-06 13:29 | 53.55427 | -0.41668 | 1996 ft | 125 kts | 40° |
| 2026-05-06 13:30 | 53.56096 | -0.40757 | 1994 ft | 122 kts | 36° |
| 2026-05-06 13:30 | 53.56773 | -0.39914 | 1994 ft | 121 kts | 36° |
| 2026-05-06 13:30 | 53.57449 | -0.39104 | 1996 ft | 119 kts | 35° |
| 2026-05-06 13:30 | 53.58126 | -0.38288 | 1994 ft | 120 kts | 35° |
| 2026-05-06 13:31 | 53.58799 | -0.37465 | 2002 ft | 120 kts | 36° |
| 2026-05-06 13:31 | 53.59470 | -0.36641 | 1972 ft | 118 kts | 36° |
| 2026-05-06 13:31 | 53.60125 | -0.35855 | 1970 ft | 116 kts | 36° |
| 2026-05-06 13:31 | 53.60777 | -0.35069 | 1966 ft | 114 kts | 35° |
| 2026-05-06 13:32 | 53.61412 | -0.34279 | 1968 ft | 113 kts | 36° |
| 2026-05-06 13:32 | 53.62047 | -0.33493 | 1971 ft | 114 kts | 36° |
| 2026-05-06 13:32 | 53.62651 | -0.32640 | 1961 ft | 115 kts | 54° |
| 2026-05-06 13:32 | 53.62804 | -0.31301 | 1963 ft | 121 kts | 89° |
| 2026-05-06 13:33 | 53.62497 | -0.29950 | 1965 ft | 130 kts | 120° |
| 2026-05-06 13:33 | 53.61743 | -0.29046 | 1965 ft | 140 kts | 156° |
| 2026-05-06 13:33 | 53.60756 | -0.29090 | 1970 ft | 148 kts | 198° |
| 2026-05-06 13:33 | 53.59955 | -0.30158 | 1978 ft | 149 kts | 231° |
| 2026-05-06 13:34 | 53.59291 | -0.31513 | 1962 ft | 151 kts | 232° |
| 2026-05-06 13:34 | 53.58606 | -0.32856 | 1954 ft | 151 kts | 230° |
| 2026-05-06 13:34 | 53.57902 | -0.34161 | 1976 ft | 149 kts | 227° |
| 2026-05-06 13:34 | 53.57158 | -0.35408 | 1967 ft | 153 kts | 224° |
| 2026-05-06 13:35 | 53.56308 | -0.36480 | 1968 ft | 153 kts | 216° |
| 2026-05-06 13:35 | 53.55446 | -0.37533 | 1995 ft | 152 kts | 217° |
| 2026-05-06 13:35 | 53.54612 | -0.38641 | 1983 ft | 153 kts | 218° |
| 2026-05-06 13:35 | 53.53757 | -0.39681 | 1957 ft | 151 kts | 215° |
| 2026-05-06 13:36 | 53.52890 | -0.40689 | 1946 ft | 151 kts | 216° |
| 2026-05-06 13:36 | 53.52039 | -0.41741 | 1946 ft | 153 kts | 217° |
| 2026-05-06 13:36 | 53.51194 | -0.42787 | 2017 ft | 149 kts | 216° |
| 2026-05-06 13:36 | 53.50298 | -0.43654 | 1990 ft | 150 kts | 192° |
| 2026-05-06 13:37 | 53.49302 | -0.43492 | 1978 ft | 142 kts | 148° |
| 2026-05-06 13:37 | 53.48638 | -0.42363 | 1871 ft | 133 kts | 103° |
| 2026-05-06 13:37 | 53.48671 | -0.40984 | 1888 ft | 116 kts | 57° |
| 2026-05-06 13:37 | 53.49322 | -0.40224 | 1823 ft | 116 kts | 18° |
| 2026-05-06 13:38 | 53.50038 | -0.39855 | 1974 ft | 109 kts | 20° |
| 2026-05-06 13:38 | 53.50767 | -0.39470 | 1905 ft | 108 kts | 20° |
| 2026-05-06 13:38 | 53.51474 | -0.39111 | 1722 ft | 106 kts | 19° |
| 2026-05-06 13:38 | 53.52166 | -0.38778 | 1469 ft | 101 kts | 18° |
| 2026-05-06 13:39 | 53.52848 | -0.38412 | 1148 ft | 105 kts | 21° |
| 2026-05-06 13:39 | 53.53510 | -0.38026 | 983 ft | 92 kts | 21° |
| 2026-05-06 13:39 | 53.54074 | -0.37689 | 840 ft | 85 kts | 22° |
| 2026-05-06 13:39 | 53.54644 | -0.37364 | 753 ft | 88 kts | 20° |
| 2026-05-06 13:40 | 53.55234 | -0.36976 | 650 ft | 93 kts | 22° |
| 2026-05-06 13:40 | 53.55804 | -0.36584 | 539 ft | 85 kts | 24° |
| 2026-05-06 13:40 | 53.56366 | -0.36244 | 678 ft | 85 kts | 23° |
| 2026-05-06 13:40 | 53.56899 | -0.35947 | 1080 ft | 86 kts | 19° |
| 2026-05-06 13:41 | 53.57461 | -0.35663 | 1527 ft | 81 kts | 21° |
| 2026-05-06 13:41 | 53.58016 | -0.35343 | 1907 ft | 81 kts | 31° |
| 2026-05-06 13:41 | 53.58339 | -0.34501 | 2008 ft | 99 kts | 76° |
| 2026-05-06 13:41 | 53.58137 | -0.33369 | 2131 ft | 112 kts | 118° |
| 2026-05-06 13:42 | 53.57404 | -0.32653 | 2118 ft | 135 kts | 161° |
| 2026-05-06 13:42 | 53.56453 | -0.32895 | 2193 ft | 144 kts | 208° |
| 2026-05-06 13:42 | 53.55692 | -0.33929 | 2334 ft | 140 kts | 223° |
| 2026-05-06 13:42 | 53.55383 | -0.34399 | 2318 ft | 144 kts | 224° |
| 2026-05-06 13:43 | 53.54886 | -0.35328 | 2312 ft | 144 kts | 234° |
| 2026-05-06 13:44 | 53.54284 | -0.36650 | 2332 ft | 139 kts | 235° |
| 2026-05-06 13:44 | 53.53710 | -0.37957 | 2254 ft | 140 kts | 236° |
| 2026-05-06 13:44 | 53.53131 | -0.39278 | 2129 ft | 142 kts | 237° |
| 2026-05-06 13:44 | 53.52525 | -0.40621 | 2050 ft | 144 kts | 235° |
| 2026-05-06 13:45 | 53.51909 | -0.41955 | 2017 ft | 145 kts | 235° |
| 2026-05-06 13:45 | 53.50452 | -0.44176 | 2047 ft | 141 kts | 216° |
| 2026-05-06 13:45 | 53.49575 | -0.44897 | 1967 ft | 143 kts | 184° |
| 2026-05-06 13:46 | 53.48650 | -0.44523 | 1920 ft | 131 kts | 133° |
| 2026-05-06 13:46 | 53.48240 | -0.43372 | 1990 ft | 111 kts | 87° |
| 2026-05-06 13:46 | 53.48472 | -0.42238 | 2019 ft | 99 kts | 45° |
| 2026-05-06 13:46 | 53.49074 | -0.41678 | 2072 ft | 102 kts | 19° |
| 2026-05-06 13:47 | 53.49724 | -0.41258 | 2153 ft | 105 kts | 30° |
| 2026-05-06 13:47 | 53.50377 | -0.40581 | 2199 ft | 112 kts | 33° |
| 2026-05-06 13:47 | 53.51029 | -0.39887 | 2253 ft | 109 kts | 33° |
| 2026-05-06 13:47 | 53.51708 | -0.39261 | 2110 ft | 114 kts | 26° |
| 2026-05-06 13:48 | 53.52435 | -0.38795 | 2052 ft | 109 kts | 22° |
| 2026-05-06 13:48 | 53.53133 | -0.38220 | 1800 ft | 115 kts | 30° |
| 2026-05-06 13:48 | 53.53799 | -0.37560 | 1603 ft | 111 kts | 27° |
| 2026-05-06 13:48 | 53.54550 | -0.37123 | 1348 ft | 113 kts | 20° |
| 2026-05-06 13:49 | 53.55276 | -0.36738 | 1172 ft | 110 kts | 21° |
| 2026-05-06 13:49 | 53.56020 | -0.36316 | 882 ft | 115 kts | 21° |
| 2026-05-06 13:49 | 53.56792 | -0.35860 | 852 ft | 117 kts | 23° |
| 2026-05-06 13:49 | 53.57496 | -0.35410 | 1328 ft | 103 kts | 22° |
| 2026-05-06 13:50 | 53.58165 | -0.35028 | 1748 ft | 99 kts | 22° |
| 2026-05-06 13:50 | 53.58828 | -0.34638 | 1963 ft | 108 kts | 22° |
| 2026-05-06 13:50 | 53.59536 | -0.34203 | 1960 ft | 108 kts | 22° |
| 2026-05-06 13:50 | 53.60238 | -0.33741 | 1966 ft | 107 kts | 28° |
| 2026-05-06 13:51 | 53.60623 | -0.32678 | 1974 ft | 119 kts | 83° |
| 2026-05-06 13:51 | 53.60197 | -0.31442 | 1996 ft | 139 kts | 140° |
| 2026-05-06 13:51 | 53.59206 | -0.31302 | 1969 ft | 154 kts | 203° |
| 2026-05-06 13:51 | 53.58480 | -0.32553 | 2084 ft | 143 kts | 238° |
| 2026-05-06 13:52 | 53.57925 | -0.33890 | 2160 ft | 140 kts | 239° |
| 2026-05-06 13:52 | 53.57392 | -0.35293 | 2169 ft | 144 kts | 242° |
| 2026-05-06 13:52 | 53.56804 | -0.36644 | 2192 ft | 147 kts | 222° |
| 2026-05-06 13:52 | 53.55921 | -0.37521 | 2235 ft | 143 kts | 208° |
| 2026-05-06 13:53 | 53.55081 | -0.38336 | 2321 ft | 141 kts | 213° |
| 2026-05-06 13:53 | 53.54271 | -0.39353 | 2278 ft | 144 kts | 218° |
| 2026-05-06 13:53 | 53.53480 | -0.40334 | 2266 ft | 145 kts | 216° |
| 2026-05-06 13:53 | 53.52642 | -0.41354 | 2228 ft | 148 kts | 217° |
| 2026-05-06 13:54 | 53.51829 | -0.42392 | 2213 ft | 145 kts | 218° |
| 2026-05-06 13:54 | 53.51028 | -0.43418 | 2125 ft | 144 kts | 216° |
| 2026-05-06 13:54 | 53.50104 | -0.43832 | 2066 ft | 135 kts | 168° |
| 2026-05-06 13:54 | 53.49301 | -0.43126 | 1874 ft | 140 kts | 122° |
| 2026-05-06 13:55 | 53.49032 | -0.41737 | 2025 ft | 114 kts | 77° |
| 2026-05-06 13:55 | 53.49406 | -0.40637 | 1904 ft | 115 kts | 37° |
| 2026-05-06 13:55 | 53.50105 | -0.40010 | 1996 ft | 106 kts | 29° |
| 2026-05-06 13:55 | 53.50772 | -0.39602 | 1921 ft | 108 kts | 22° |
| 2026-05-06 13:56 | 53.51505 | -0.39233 | 1792 ft | 103 kts | 20° |
| 2026-05-06 13:56 | 53.52171 | -0.38874 | 1475 ft | 103 kts | 22° |
| 2026-05-06 13:56 | 53.52844 | -0.38426 | 1144 ft | 104 kts | 25° |
| 2026-05-06 13:56 | 53.53501 | -0.37942 | 835 ft | 102 kts | 28° |
| 2026-05-06 13:57 | 53.54101 | -0.37450 | 739 ft | 89 kts | 30° |
| 2026-05-06 13:57 | 53.54627 | -0.37018 | 653 ft | 75 kts | 27° |
| 2026-05-06 13:57 | 53.55083 | -0.36721 | 551 ft | 69 kts | 25° |
| 2026-05-06 13:57 | 53.55531 | -0.36398 | 427 ft | 67 kts | 30° |
| 2026-05-06 13:58 | 53.55946 | -0.36110 | 326 ft | 63 kts | 28° |
| 2026-05-06 13:58 | 53.56366 | -0.35822 | 217 ft | 70 kts | 28° |
| 2026-05-06 13:58 | 53.56802 | -0.35524 | 121 ft | 62 kts | 28° |
| 2026-05-06 13:58 | 53.57088 | -0.35324 | 107 ft | 31 kts | 24° |
| 2026-05-06 13:59 | 53.57243 | -0.35216 | 104 ft | 20 kts | 22° |
| 2026-05-06 13:59 | 53.57380 | -0.35122 | 101 ft | 25 kts | 23° |
| 2026-05-06 13:59 | 53.57545 | -0.35005 | 98 ft | 28 kts | 28° |
| 2026-05-06 13:59 | 53.57726 | -0.34879 | 92 ft | 30 kts | 21° |
| 2026-05-06 14:00 | 53.57896 | -0.34763 | 86 ft | 18 kts | 18° |
| 2026-05-06 14:00 | 53.57996 | -0.34717 | 83 ft | 14 kts | 0° |
| 2026-05-06 14:00 | 53.58077 | -0.34770 | 83 ft | 14 kts | 321° |
| 2026-05-06 14:00 | 53.58138 | -0.34850 | 74 ft | 7 kts | 328° |
| 2026-05-06 14:01 | 53.58175 | -0.34908 | 77 ft | 8 kts | 301° |
| 2026-05-06 14:01 | 53.58176 | -0.34995 | 77 ft | 4 kts | 295° |
| 2026-05-06 14:01 | 53.58184 | -0.35023 | 77 ft | 0 kts | 300° |